createdAt,value
2018-07-26T00:03:33.466Z,22.200001
2018-07-26T00:08:35.909Z,22.200001
2018-07-26T00:13:38.138Z,22.1
2018-07-26T00:18:40.525Z,22
2018-07-26T00:23:42.793Z,22
2018-07-26T00:28:45.063Z,21.9
2018-07-26T00:33:47.269Z,21.799999
2018-07-26T00:38:49.592Z,21.700001
2018-07-26T00:43:51.869Z,21.5
2018-07-26T00:48:54.136Z,21.4
2018-07-26T00:53:56.411Z,21.4
2018-07-26T00:58:58.762Z,21.5
2018-07-26T01:04:01.200Z,21.5
2018-07-26T01:09:03.377Z,21.5
2018-07-26T01:14:05.687Z,21.6
2018-07-26T01:19:07.976Z,21.700001
2018-07-26T01:24:10.257Z,21.9
2018-07-26T01:29:12.481Z,21.9
2018-07-26T01:34:14.853Z,22
2018-07-26T01:39:17.093Z,21.9
2018-07-26T01:44:19.404Z,21.799999
2018-07-26T01:49:21.793Z,21.799999
2018-07-26T01:54:24.043Z,21.700001
2018-07-26T01:59:26.333Z,21.700001
2018-07-26T02:04:28.813Z,21.6
2018-07-26T02:09:31.057Z,21.5
2018-07-26T02:14:33.190Z,21.4
2018-07-26T02:19:35.613Z,21.299999
2018-07-26T02:24:37.893Z,21.299999
2018-07-26T02:29:40.098Z,21.299999
2018-07-26T02:34:42.401Z,21.200001
2018-07-26T02:39:44.667Z,21.1
2018-07-26T02:44:46.993Z,20.9
2018-07-26T02:49:49.166Z,20.799999
2018-07-26T02:54:51.567Z,20.799999
2018-07-26T02:59:53.900Z,20.700001
2018-07-26T03:09:58.600Z,20.6
2018-07-26T03:15:00.798Z,20.4
2018-07-26T03:25:05.336Z,20
2018-07-26T03:30:07.677Z,19.9
2018-07-26T03:35:09.880Z,19.9
2018-07-26T03:40:12.232Z,19.799999
2018-07-26T03:45:14.617Z,19.9
2018-07-26T03:50:16.848Z,19.799999
2018-07-26T03:55:19.065Z,19.799999
2018-07-26T04:00:21.336Z,19.9
2018-07-26T04:05:23.689Z,19.9
2018-07-26T04:10:26.032Z,19.9
2018-07-26T04:15:28.274Z,20
2018-07-26T04:20:30.643Z,20
2018-07-26T04:25:33.101Z,20.1
2018-07-26T04:30:35.147Z,20.1
2018-07-26T04:35:37.414Z,20
2018-07-26T04:40:39.819Z,20
2018-07-26T04:45:42.060Z,20
2018-07-26T04:50:44.304Z,20
2018-07-26T04:55:46.663Z,20
2018-07-26T05:00:48.999Z,20.200001
2018-07-26T05:05:51.332Z,20.200001
2018-07-26T05:10:53.502Z,20.200001
2018-07-26T05:15:55.854Z,20.299999
2018-07-26T05:20:58.154Z,20.5
2018-07-26T05:26:00.343Z,20.6
2018-07-26T05:31:02.693Z,20.700001
2018-07-26T05:36:05.043Z,20.799999
2018-07-26T05:41:07.404Z,20.9
2018-07-26T05:46:09.637Z,21.1
2018-07-26T05:51:11.885Z,21.1
2018-07-26T05:56:14.152Z,21.200001
2018-07-26T06:01:19.450Z,21.299999
2018-07-26T06:06:21.797Z,21.5
2018-07-26T06:11:23.996Z,21.6
2018-07-26T06:16:26.419Z,21.799999
2018-07-26T06:21:28.700Z,22
2018-07-26T06:26:30.917Z,22.200001
2018-07-26T06:31:33.293Z,22.5
2018-07-26T06:36:35.626Z,22.9
2018-07-26T06:41:37.767Z,23.200001
2018-07-26T06:46:40.114Z,23.4
2018-07-26T06:51:42.435Z,23.700001
2018-07-26T06:56:44.653Z,24.1
2018-07-26T07:01:47.137Z,24.5
2018-07-26T07:06:49.537Z,24.9
2018-07-26T07:11:51.625Z,25.299999
2018-07-26T07:16:53.916Z,25.6
2018-07-26T07:21:56.172Z,25.9
2018-07-26T07:26:58.536Z,26.4
2018-07-26T07:32:00.747Z,26.6
2018-07-26T07:37:03.220Z,27
2018-07-26T07:42:05.399Z,27.5
2018-07-26T07:47:07.642Z,27.700001
2018-07-26T07:52:09.937Z,27.9
2018-07-26T07:57:12.192Z,28.6
2018-07-26T08:02:14.496Z,28.799999
2018-07-26T08:07:16.808Z,29.299999
2018-07-26T08:12:19.043Z,29.5
2018-07-26T08:17:21.502Z,30
2018-07-26T08:22:23.701Z,30.6
2018-07-26T08:27:26.001Z,31
2018-07-26T08:32:28.269Z,31.200001
2018-07-26T08:37:30.604Z,31.700001
2018-07-26T08:42:32.887Z,32.299999
2018-07-26T08:47:35.169Z,32.5
2018-07-26T08:52:37.423Z,32.799999
2018-07-26T08:57:39.749Z,33.400002
2018-07-26T09:02:42.102Z,33.5
2018-07-26T09:07:44.426Z,33.200001
2018-07-26T09:12:46.554Z,33.099998
2018-07-26T09:17:48.923Z,33.5
2018-07-26T09:22:51.234Z,34
2018-07-26T09:27:53.572Z,34.299999
2018-07-26T09:32:55.802Z,34.900002
2018-07-26T09:37:58.072Z,34.599998
2018-07-26T09:43:00.430Z,35.5
2018-07-26T09:48:02.814Z,35.700001
2018-07-26T09:53:05.175Z,35.200001
2018-07-26T09:58:07.345Z,36
2018-07-26T10:03:09.559Z,36.400002
2018-07-26T10:08:11.807Z,36.799999
2018-07-26T10:13:14.131Z,37.099998
2018-07-26T10:18:16.462Z,36.700001
2018-07-26T10:23:18.815Z,36.900002
2018-07-26T10:28:21.006Z,37.400002
2018-07-26T10:33:23.256Z,37.299999
2018-07-26T10:38:25.664Z,37.700001
2018-07-26T10:43:27.908Z,38
2018-07-26T10:48:30.260Z,38.5
2018-07-26T10:53:32.515Z,38.700001
2018-07-26T10:58:34.933Z,38.400002
2018-07-26T11:03:37.191Z,39.099998
2018-07-26T11:08:39.501Z,39.200001
2018-07-26T11:13:41.801Z,39.599998
2018-07-26T11:18:43.968Z,40.099998
2018-07-26T11:23:47.538Z,40.599998
2018-07-26T11:28:48.612Z,41.099998
2018-07-26T11:33:50.939Z,41
2018-07-26T11:38:53.240Z,40.5
2018-07-26T11:43:55.471Z,39.700001
2018-07-26T11:48:57.743Z,39.799999
2018-07-26T11:54:00.169Z,40.799999
2018-07-26T11:59:02.360Z,41.5
2018-07-26T12:04:04.629Z,42
2018-07-26T12:09:06.971Z,41.599998
2018-07-26T12:14:09.220Z,40.799999
2018-07-26T12:19:11.493Z,41.599998
2018-07-26T12:24:13.731Z,42.5
2018-07-26T12:29:16.131Z,42.700001
2018-07-26T12:34:18.323Z,42.700001
2018-07-26T12:39:20.685Z,42.700001
2018-07-26T12:44:23.443Z,42.700001
2018-07-26T12:49:25.302Z,42.799999
2018-07-26T12:54:27.630Z,43.299999
2018-07-26T12:59:29.968Z,43.299999
2018-07-26T13:04:32.376Z,42.200001
2018-07-26T13:09:34.564Z,42.599998
2018-07-26T13:14:36.836Z,42.599998
2018-07-26T13:19:39.075Z,43.200001
2018-07-26T13:24:41.375Z,43.700001
2018-07-26T13:29:43.665Z,43.400002
2018-07-26T13:34:45.876Z,43.599998
2018-07-26T13:39:48.271Z,43.900002
2018-07-26T13:44:50.441Z,43
2018-07-26T13:49:52.883Z,42.799999
2018-07-26T13:54:55.204Z,42.799999
2018-07-26T13:59:57.652Z,43.299999
2018-07-26T14:04:59.748Z,43.799999
2018-07-26T14:10:02.020Z,44
2018-07-26T14:15:04.401Z,43.700001
2018-07-26T14:20:06.665Z,43.700001
2018-07-26T14:25:08.889Z,43.400002
2018-07-26T14:30:11.391Z,43.099998
2018-07-26T14:40:17.387Z,42.900002
2018-07-26T14:45:18.156Z,42.400002
2018-07-26T14:50:20.401Z,42.599998
2018-07-26T14:55:22.675Z,42.700001
2018-07-26T15:00:24.941Z,42.900002
2018-07-26T15:05:27.194Z,43.200001
2018-07-26T15:10:29.524Z,43.200001
2018-07-26T15:15:31.887Z,42.099998
2018-07-26T15:20:34.225Z,40.5
2018-07-26T15:25:36.542Z,39.599998
2018-07-26T15:30:38.773Z,39.099998
2018-07-26T15:35:41.002Z,39
2018-07-26T15:40:43.435Z,39.099998
2018-07-26T15:45:45.688Z,39.099998
2018-07-26T15:50:47.965Z,38.5
2018-07-26T15:55:50.265Z,36.700001
2018-07-26T16:00:52.502Z,35.099998
2018-07-26T16:05:54.856Z,33.900002
2018-07-26T16:10:58.247Z,33.400002
2018-07-26T16:15:59.318Z,33.5
2018-07-26T16:21:01.698Z,33.400002
2018-07-26T16:26:03.956Z,33.099998
2018-07-26T16:31:06.331Z,33
2018-07-26T16:36:08.645Z,32.900002
2018-07-26T16:41:10.919Z,32.900002
2018-07-26T16:46:13.238Z,32.599998
2018-07-26T16:51:15.572Z,32.099998
2018-07-26T16:56:17.747Z,31.700001
2018-07-26T17:01:20.113Z,31.6
2018-07-26T17:06:22.217Z,31.9
2018-07-26T17:11:24.619Z,32.099998
2018-07-26T17:16:28.280Z,31.9
2018-07-26T17:21:29.219Z,31.5
2018-07-26T17:26:31.516Z,31.6
2018-07-26T17:31:33.854Z,31.1
2018-07-26T17:36:36.073Z,31
2018-07-26T17:41:38.273Z,31.1
2018-07-26T17:46:40.707Z,30.9
2018-07-26T17:51:44.186Z,30.9
2018-07-26T17:56:45.341Z,31.200001
2018-07-26T18:06:49.956Z,31
2018-07-26T18:11:52.112Z,30.9
2018-07-26T18:16:54.438Z,30.9
2018-07-26T18:21:56.811Z,30.6
2018-07-26T18:26:58.987Z,30.4
2018-07-26T18:32:01.334Z,29.9
2018-07-26T18:37:03.580Z,29.700001
2018-07-26T18:42:05.971Z,29.6
2018-07-26T18:47:09.735Z,29.6
2018-07-26T18:52:10.616Z,29.200001
2018-07-26T18:57:13.065Z,28.9
2018-07-26T19:02:15.077Z,28.799999
2018-07-26T19:07:17.343Z,28.700001
2018-07-26T19:12:19.595Z,28.6
2018-07-26T19:17:22.094Z,28.5
2018-07-26T19:22:24.359Z,28.200001
2018-07-26T19:27:26.765Z,27.700001
2018-07-26T19:32:29.004Z,27.700001
2018-07-26T19:37:31.131Z,27.5
2018-07-26T19:42:33.401Z,27.299999
2018-07-26T19:47:35.751Z,27.4
2018-07-26T19:52:38.041Z,27.5
2018-07-26T19:57:40.608Z,27.6
2018-07-26T20:02:42.870Z,27.5
2018-07-26T20:07:45.049Z,27.5
2018-07-26T20:12:47.359Z,27.5
2018-07-26T20:17:49.542Z,27.200001
2018-07-26T20:22:51.863Z,26.799999
2018-07-26T20:27:54.118Z,26.5
2018-07-26T20:32:56.484Z,26.200001
2018-07-26T20:43:01.065Z,26
2018-07-26T20:48:03.285Z,26
2018-07-26T20:53:05.703Z,25.9
2018-07-26T20:58:07.954Z,25.700001
2018-07-26T21:03:10.561Z,25.6
2018-07-26T21:08:12.513Z,25.700001
2018-07-26T21:13:14.707Z,25.799999
2018-07-26T21:18:17.046Z,25.700001
2018-07-26T21:23:19.495Z,25.700001
2018-07-26T21:28:21.671Z,25.6
2018-07-26T21:33:23.883Z,25.4
2018-07-26T21:38:26.186Z,25.4
2018-07-26T21:43:28.510Z,25.200001
2018-07-26T21:48:30.823Z,25.200001
2018-07-26T21:53:33.155Z,25.1
2018-07-26T21:58:35.495Z,25.200001
2018-07-26T22:03:37.859Z,25.1
2018-07-26T22:08:40.032Z,24.9
2018-07-26T22:13:42.275Z,24.700001
2018-07-26T22:18:45.596Z,24.700001
2018-07-26T22:23:47.108Z,24.9
2018-07-26T22:28:49.430Z,24.9
2018-07-26T22:38:53.700Z,24.6
2018-07-26T22:43:56.101Z,24.299999
2018-07-26T22:48:58.262Z,24.200001
2018-07-26T22:54:00.818Z,24.1
2018-07-26T22:59:02.952Z,23.9
2018-07-26T23:04:05.298Z,23.700001
2018-07-26T23:09:07.651Z,23.700001
2018-07-26T23:14:10.369Z,23.700001
2018-07-26T23:19:12.022Z,23.5
2018-07-26T23:24:14.495Z,23.299999
2018-07-26T23:29:16.716Z,23
2018-07-26T23:34:19.083Z,22.6
2018-07-26T23:39:21.326Z,22.6
2018-07-26T23:44:23.588Z,22.4
2018-07-26T23:49:25.883Z,22.4
2018-07-26T23:54:28.221Z,22.299999
2018-07-26T23:59:30.374Z,22
